Terminal Aerodrome Forecast
Issued by NWS

Home | Current Version | Previous Version | Text Only | Print | Product List | Glossary Off
Versions: 1 2 3 4 5 6 7 8 9 10 11 12 13 14 15 16

000
FTUS45 KGGW 162325
TAFOLF
TAF
KOLF 162325Z 1700/1724 VRB04KT P6SM BKN110
     FM170500 VRB04KT P6SM BKN060 WS020/25035KT
     FM170900 25006KT 2SM BR SCT035 WS020/26040KT
     FM171200 25008KT P6SM SCT040 WS020/27040KT
     FM171400 26011KT P6SM SCT050 WS020/27045KT
     FM171800 26011KT P6SM SCT080=

USA.gov is the U.S. government's official web portal to all federal, state and local government web resources and services.